Time;durP1;ratioP1;P1;durP2;ratioP2;P2;SDS_P1;SDS_P2;PMS_P1;PMS_P2;Temp;Humidity;BMP_temperature;BMP_pressure;BME280_temperature;BME280_humidity;BME280_pressure;Samples;Min_cycle;Max_cycle;Signal;HPM_P1;HPM_P2
2023/01/20 00:02:10;;;;;;;27.40;26.10;;;;;;;1.89;100.00;100519.75;5022698;28;20428;-46
2023/01/20 00:04:37;;;;;;;27.37;26.27;;;;;;;1.89;100.00;100521.56;5021930;28;20895;-50
2023/01/20 00:07:05;;;;;;;28.07;26.77;;;;;;;1.88;100.00;100512.03;5022944;28;20453;-45
2023/01/20 00:09:34;;;;;;;27.37;26.37;;;;;;;1.89;100.00;100519.75;5022830;28;20504;-47
2023/01/20 00:12:01;;;;;;;27.33;26.10;;;;;;;1.89;100.00;100521.56;5023001;28;20469;-46
2023/01/20 00:14:29;;;;;;;26.20;24.80;;;;;;;1.90;100.00;100518.78;5021745;28;20511;-46
2023/01/20 00:16:58;;;;;;;27.43;26.33;;;;;;;1.91;100.00;100517.78;5022148;28;20454;-50
2023/01/20 00:19:27;;;;;;;25.80;24.70;;;;;;;1.93;100.00;100528.19;5022653;28;20509;-48
2023/01/20 00:21:54;;;;;;;26.70;25.60;;;;;;;1.93;100.00;100529.03;5022817;28;20425;-49
2023/01/20 00:24:22;;;;;;;26.77;25.67;;;;;;;1.94;100.00;100528.03;5021066;28;20461;-48
2023/01/20 00:26:51;;;;;;;28.77;27.40;;;;;;;1.97;100.00;100535.63;5022541;28;20449;-50
2023/01/20 00:29:19;;;;;;;26.00;24.90;;;;;;;1.99;100.00;100541.59;5022174;28;20433;-48
2023/01/20 00:31:46;;;;;;;26.43;25.10;;;;;;;2.01;100.00;100538.78;5021651;28;20473;-45
2023/01/20 00:34:14;;;;;;;25.93;24.93;;;;;;;2.01;100.00;100541.41;5021398;28;20471;-50
2023/01/20 00:36:42;;;;;;;27.97;26.27;;;;;;;2.03;100.00;100548.19;5021678;28;20449;-46
2023/01/20 00:39:09;;;;;;;28.37;27.17;;;;;;;2.07;100.00;100553.97;5021492;28;20514;-46
2023/01/20 00:41:37;;;;;;;27.50;26.20;;;;;;;2.07;100.00;100556.63;5021560;28;20433;-48
2023/01/20 00:44:06;;;;;;;26.87;25.77;;;;;;;2.06;100.00;100565.50;5020564;28;20465;-52
2023/01/20 00:46:34;;;;;;;26.37;25.37;;;;;;;2.02;100.00;100564.13;5021666;28;20520;-48
2023/01/20 00:49:02;;;;;;;27.40;26.00;;;;;;;2.04;100.00;100572.69;5020890;28;20445;-45
2023/01/20 00:51:29;;;;;;;27.37;26.00;;;;;;;2.05;100.00;100574.34;5021551;28;20440;-47
2023/01/20 00:53:57;;;;;;;26.73;25.53;;;;;;;2.05;100.00;100579.63;5021249;28;20487;-44
2023/01/20 00:56:25;;;;;;;27.27;26.03;;;;;;;2.04;100.00;100586.66;5022074;28;20448;-47
2023/01/20 00:58:53;;;;;;;26.90;25.90;;;;;;;2.02;100.00;100593.06;5025246;28;20437;-48
2023/01/20 01:01:23;;;;;;;27.33;26.23;;;;;;;1.96;100.00;100593.63;5025537;28;20429;-47
2023/01/20 01:03:52;;;;;;;26.37;25.30;;;;;;;2.00;100.00;100597.66;5024899;28;20476;-47
2023/01/20 01:06:22;;;;;;;26.67;25.57;;;;;;;2.01;100.00;100600.13;5024997;28;20459;-46
2023/01/20 01:08:49;;;;;;;26.87;25.80;;;;;;;1.98;100.00;100604.81;5025461;28;20806;-46
2023/01/20 01:11:17;;;;;;;26.37;25.37;;;;;;;2.00;100.00;100616.84;5024973;28;20467;-45
2023/01/20 01:13:45;;;;;;;27.23;26.13;;;;;;;1.99;100.00;100620.47;5024467;28;20457;-47
2023/01/20 01:16:13;;;;;;;27.63;26.27;;;;;;;1.98;100.00;100628.50;5024767;28;20460;-47
2023/01/20 01:18:43;;;;;;;27.07;26.07;;;;;;;1.96;100.00;100625.19;5025218;28;20496;-48
2023/01/20 01:21:14;;;;;;;26.37;25.13;;;;;;;1.96;100.00;100626.03;5025005;28;20437;-48
2023/01/20 01:23:42;;;;;;;26.10;25.10;;;;;;;1.94;100.00;100630.59;5024263;28;20471;-48
2023/01/20 01:26:10;;;;;;;26.27;25.20;;;;;;;1.90;100.00;100638.91;5024699;28;20455;-45
2023/01/20 01:28:38;;;;;;;26.73;25.63;;;;;;;1.88;100.00;100648.75;5025156;28;20504;-51
2023/01/20 01:31:07;;;;;;;26.90;25.90;;;;;;;1.85;100.00;100643.78;5025024;28;20444;-49
2023/01/20 01:33:35;;;;;;;26.40;25.40;;;;;;;1.86;100.00;100653.31;5023759;28;20556;-48
2023/01/20 01:36:07;;;;;;;26.80;25.80;;;;;;;1.84;100.00;100658.72;5023389;28;20505;-45
2023/01/20 01:38:34;;;;;;;27.20;26.10;;;;;;;1.85;100.00;100667.44;5024495;28;20576;-50
2023/01/20 01:41:02;;;;;;;26.90;25.90;;;;;;;1.83;100.00;100669.38;5024126;28;20780;-50
2023/01/20 01:43:32;;;;;;;27.80;26.67;;;;;;;1.81;100.00;100666.91;5023715;28;20461;-46
2023/01/20 01:46:00;;;;;;;26.67;25.57;;;;;;;1.83;100.00;100672.00;5024144;28;20460;-46
2023/01/20 01:48:32;;;;;;;27.27;26.27;;;;;;;1.79;100.00;100681.16;5023761;28;20433;-48
2023/01/20 01:51:04;;;;;;;26.90;25.90;;;;;;;1.75;100.00;100683.25;5024133;28;20455;-46
2023/01/20 01:53:39;;;;;;;26.27;25.27;;;;;;;1.70;100.00;100692.53;5023590;28;20465;-50
2023/01/20 01:56:08;;;;;;;25.80;24.60;;;;;;;1.63;100.00;100698.34;5024323;28;20956;-46
2023/01/20 01:58:40;;;;;;;25.33;24.43;;;;;;;1.60;100.00;100697.78;5024470;28;20445;-46
2023/01/20 02:01:08;;;;;;;26.70;25.70;;;;;;;1.57;100.00;100703.31;5024130;28;20810;-50
2023/01/20 02:03:47;;;;;;;25.90;24.90;;;;;;;1.50;100.00;100700.41;5022640;28;20556;-46
2023/01/20 02:06:15;;;;;;;25.20;24.30;;;;;;;1.50;100.00;100708.31;5024356;28;20453;-45
2023/01/20 02:08:45;;;;;;;25.77;24.67;;;;;;;1.48;100.00;100710.25;5023522;28;20801;-45
2023/01/20 02:11:13;;;;;;;26.30;25.30;;;;;;;1.48;100.00;100722.56;5023688;28;20453;-49
2023/01/20 02:13:40;;;;;;;25.80;24.80;;;;;;;1.45;100.00;100723.66;5022878;28;20471;-46
2023/01/20 02:16:17;;;;;;;26.47;25.47;;;;;;;1.42;100.00;100723.94;5023833;28;20457;-46
2023/01/20 02:18:58;;;;;;;26.47;25.47;;;;;;;1.40;100.00;100725.88;5023681;28;20444;-49
2023/01/20 02:22:08;;;;;;;26.90;25.90;;;;;;;1.37;100.00;100730.59;5024568;28;20732;-48
2023/01/20 02:25:21;;;;;;;26.10;25.10;;;;;;;1.37;100.00;100733.22;5022931;28;20514;-46
2023/01/20 02:28:23;;;;;;;25.90;24.80;;;;;;;1.37;100.00;100746.34;5023817;28;20484;-51
2023/01/20 02:31:26;;;;;;;25.67;24.73;;;;;;;1.34;100.00;100747.47;5024178;28;20433;-46
2023/01/20 02:34:00;;;;;;;25.50;24.60;;;;;;;1.34;100.00;100747.47;5023172;28;20460;-47
2023/01/20 02:36:33;;;;;;;26.20;25.20;;;;;;;1.33;100.00;100753.66;5024139;28;20456;-48
2023/01/20 02:39:06;;;;;;;25.73;24.83;;;;;;;1.29;100.00;100756.69;5023626;28;20436;-50
2023/01/20 02:41:41;;;;;;;26.30;25.30;;;;;;;1.29;100.00;100751.44;5024219;28;20421;-48
2023/01/20 02:44:17;;;;;;;25.20;24.20;;;;;;;1.31;100.00;100760.03;5023123;28;20485;-48
2023/01/20 02:46:52;;;;;;;25.13;24.23;;;;;;;1.29;100.00;100768.03;5023267;28;20448;-46
2023/01/20 02:49:27;;;;;;;25.30;24.40;;;;;;;1.31;100.00;100767.91;5024225;28;20413;-47
2023/01/20 02:52:01;;;;;;;25.60;24.60;;;;;;;1.31;100.00;100760.88;5023111;28;20433;-47
2023/01/20 02:54:33;;;;;;;26.17;25.17;;;;;;;1.32;100.00;100765.13;5023163;28;20997;-50
2023/01/20 02:57:03;;;;;;;25.70;24.77;;;;;;;1.35;100.00;100775.38;5023158;28;20459;-46
2023/01/20 02:59:36;;;;;;;26.43;25.43;;;;;;;1.41;100.00;100779.25;5022073;28;20439;-44
2023/01/20 03:02:08;;;;;;;26.47;25.47;;;;;;;1.44;100.00;100786.84;5022922;28;20434;-45
2023/01/20 03:04:42;;;;;;;26.30;25.30;;;;;;;1.47;100.00;100782.16;5022748;28;20464;-47
2023/01/20 03:07:13;;;;;;;27.60;26.27;;;;;;;1.48;100.00;100796.13;5023228;28;20461;-50
2023/01/20 03:09:46;;;;;;;26.60;25.60;;;;;;;1.52;100.00;100795.69;5022567;28;20502;-49
2023/01/20 03:12:21;;;;;;;26.30;25.20;;;;;;;1.55;100.00;100799.88;5022909;28;20427;-49
2023/01/20 03:14:50;;;;;;;25.93;25.03;;;;;;;1.54;100.00;100799.03;5002418;28;20520;-47
2023/01/20 03:17:18;;;;;;;26.00;25.00;;;;;;;1.51;100.00;100801.94;5003695;28;20509;-46
2023/01/20 03:19:47;;;;;;;25.90;24.80;;;;;;;1.52;100.00;100808.03;5002750;28;20537;-45
2023/01/20 03:22:15;;;;;;;26.30;25.30;;;;;;;1.49;100.00;100811.75;5002932;28;20430;-47
2023/01/20 03:24:46;;;;;;;26.57;25.47;;;;;;;1.44;100.00;100811.34;5021431;28;20465;-47
2023/01/20 03:27:14;;;;;;;26.83;25.83;;;;;;;1.44;100.00;100821.84;5022975;28;20452;-47
2023/01/20 03:29:42;;;;;;;26.83;25.73;;;;;;;1.42;100.00;100813.28;5023353;28;20447;-46
2023/01/20 03:32:11;;;;;;;25.87;24.87;;;;;;;1.39;100.00;100812.72;5022273;28;20437;-51
2023/01/20 03:34:42;;;;;;;26.30;25.23;;;;;;;1.33;100.00;100813.25;5021740;28;20477;-47
2023/01/20 03:37:12;;;;;;;25.50;24.60;;;;;;;1.31;100.00;100825.72;5023040;28;20456;-48
2023/01/20 03:39:40;;;;;;;26.37;25.37;;;;;;;1.30;100.00;100826.66;5022156;28;20433;-47
2023/01/20 03:42:12;;;;;;;27.07;25.77;;;;;;;1.28;100.00;100839.94;5023051;28;20430;-50
2023/01/20 03:44:54;;;;;;;26.43;25.33;;;;;;;1.29;100.00;100846.00;5022032;28;20457;-47
2023/01/20 03:47:36;;;;;;;25.47;24.47;;;;;;;1.29;100.00;100846.84;5022456;28;20453;-45
2023/01/20 03:50:09;;;;;;;26.30;25.20;;;;;;;1.28;100.00;100845.19;5022050;28;20424;-48
2023/01/20 03:52:44;;;;;;;25.93;24.83;;;;;;;1.32;100.00;100853.63;5022687;28;20776;-44
2023/01/20 03:55:20;;;;;;;26.97;25.87;;;;;;;1.36;100.00;100857.66;5022069;28;20539;-46
2023/01/20 03:57:53;;;;;;;26.43;25.43;;;;;;;1.37;100.00;100862.78;5022459;28;20445;-49
2023/01/20 04:00:24;;;;;;;26.57;25.57;;;;;;;1.37;100.00;100854.91;5022342;28;20434;-46
2023/01/20 04:02:54;;;;;;;26.13;25.10;;;;;;;1.33;100.00;100861.38;5022035;28;20457;-45
2023/01/20 04:05:22;;;;;;;26.27;25.27;;;;;;;1.35;100.00;100864.69;5022328;28;20422;-49
2023/01/20 04:07:54;;;;;;;25.50;24.60;;;;;;;1.33;100.00;100858.75;5022541;28;20449;-49
2023/01/20 04:10:25;;;;;;;25.37;24.27;;;;;;;1.33;100.00;100861.38;5022181;28;20448;-48
2023/01/20 04:12:53;;;;;;;26.07;25.07;;;;;;;1.36;100.00;100865.53;5021229;28;20456;-51
2023/01/20 04:15:22;;;;;;;25.63;24.63;;;;;;;1.34;100.00;100860.44;5021471;28;20477;-47
2023/01/20 04:17:49;;;;;;;26.67;25.40;;;;;;;1.33;100.00;100858.75;5021026;28;20453;-47
2023/01/20 04:20:18;;;;;;;25.30;24.30;;;;;;;1.33;100.00;100866.63;5018703;28;20612;-47
2023/01/20 04:22:50;;;;;;;25.00;24.10;;;;;;;1.30;100.00;100869.53;5011285;28;20461;-45
2023/01/20 04:25:25;;;;;;;24.73;23.83;;;;;;;1.30;100.00;100873.94;5011827;28;20834;-48
2023/01/20 04:27:53;;;;;;;24.50;23.70;;;;;;;1.29;100.00;100864.41;5011985;28;20815;-44
2023/01/20 04:30:20;;;;;;;25.73;24.53;;;;;;;1.27;100.00;100877.69;5011882;28;20442;-46
2023/01/20 04:32:48;;;;;;;26.20;25.20;;;;;;;1.26;100.00;100878.63;5014391;28;20453;-47
2023/01/20 04:35:19;;;;;;;26.40;25.40;;;;;;;1.28;100.00;100879.34;5015390;28;20464;-45
2023/01/20 04:37:46;;;;;;;26.30;25.20;;;;;;;1.29;100.00;100878.38;5015823;28;20827;-44
2023/01/20 04:40:14;;;;;;;25.30;24.30;;;;;;;1.31;100.00;100881.72;5015708;28;20433;-44
2023/01/20 04:42:43;;;;;;;25.67;24.67;;;;;;;1.32;100.00;100879.88;5015225;28;20429;-44
2023/01/20 04:45:14;;;;;;;26.17;24.87;;;;;;;1.35;100.00;100882.25;5015303;28;20533;-52
2023/01/20 04:47:43;;;;;;;26.10;24.90;;;;;;;1.35;100.00;100885.72;5015354;28;20449;-44
2023/01/20 04:50:12;;;;;;;26.13;25.13;;;;;;;1.36;100.00;100894.44;5015418;28;20436;-46
2023/01/20 04:52:40;;;;;;;27.63;26.27;;;;;;;1.36;100.00;100891.81;5014889;28;20437;-44
2023/01/20 04:55:09;;;;;;;27.43;26.23;;;;;;;1.37;100.00;100894.31;5015103;28;20468;-44
2023/01/20 04:57:36;;;;;;;27.73;26.57;;;;;;;1.38;100.00;100900.38;5015047;28;20449;-48
2023/01/20 05:00:08;;;;;;;28.60;27.00;;;;;;;1.40;100.00;100903.72;5014013;28;20433;-45
2023/01/20 05:02:35;;;;;;;28.17;26.97;;;;;;;1.38;100.00;100910.88;5014575;28;20911;-45
2023/01/20 05:05:03;;;;;;;28.33;27.03;;;;;;;1.38;100.00;100906.47;5014964;28;20463;-45
2023/01/20 05:07:31;;;;;;;28.10;26.80;;;;;;;1.40;100.00;100916.88;5015245;28;20453;-45
2023/01/20 05:09:59;;;;;;;28.30;27.10;;;;;;;1.36;100.00;100918.91;5015051;28;20452;-47
2023/01/20 05:12:26;;;;;;;27.70;26.50;;;;;;;1.41;100.00;100910.63;5014689;28;20460;-47
2023/01/20 05:14:54;;;;;;;28.47;27.27;;;;;;;1.43;100.00;100925.31;5014466;28;20564;-45
2023/01/20 05:17:23;;;;;;;29.67;28.37;;;;;;;1.40;100.00;100928.22;5015092;28;20452;-44
2023/01/20 05:19:51;;;;;;;28.47;27.00;;;;;;;1.43;100.00;100937.63;5015176;28;20429;-46
2023/01/20 05:22:18;;;;;;;28.20;26.90;;;;;;;1.43;100.00;100940.25;5014769;28;20448;-44
2023/01/20 05:24:46;;;;;;;28.80;27.30;;;;;;;1.42;100.00;100943.81;5014053;28;20464;-44
2023/01/20 05:27:13;;;;;;;29.37;28.07;;;;;;;1.41;100.00;100943.00;5014642;28;20453;-48
2023/01/20 05:29:41;;;;;;;29.17;27.87;;;;;;;1.42;100.00;100939.41;5014809;28;20448;-44
2023/01/20 05:32:09;;;;;;;28.60;27.30;;;;;;;1.41;100.00;100948.25;5014793;28;20437;-44
2023/01/20 05:34:38;;;;;;;29.77;28.20;;;;;;;1.39;100.00;100954.59;5013885;28;20465;-44
2023/01/20 05:37:05;;;;;;;29.90;28.40;;;;;;;1.41;100.00;100956.13;5014545;28;20818;-45
2023/01/20 05:39:33;;;;;;;30.37;28.70;;;;;;;1.40;100.00;100965.00;5014322;28;20441;-45
2023/01/20 05:42:01;;;;;;;30.00;28.70;;;;;;;1.42;100.00;100975.34;5013720;28;20441;-45
2023/01/20 05:44:29;;;;;;;29.93;28.50;;;;;;;1.43;100.00;100971.78;5013728;28;20465;-44
2023/01/20 05:46:56;;;;;;;30.70;28.87;;;;;;;1.43;100.00;100974.41;5014344;28;20453;-47
2023/01/20 05:49:24;;;;;;;29.53;27.93;;;;;;;1.38;100.00;100990.56;5014410;28;20827;-48
2023/01/20 05:51:53;;;;;;;29.20;27.93;;;;;;;1.32;100.00;100985.81;5014323;28;20429;-49
2023/01/20 05:54:21;;;;;;;31.00;29.50;;;;;;;1.32;100.00;100998.13;5013424;28;20480;-44
2023/01/20 05:56:49;;;;;;;29.50;27.93;;;;;;;1.31;100.00;100997.31;5014413;28;20449;-45
2023/01/20 05:59:16;;;;;;;29.30;28.07;;;;;;;1.29;100.00;100999.22;5014098;28;20495;-47
2023/01/20 06:01:44;;;;;;;29.73;28.17;;;;;;;1.23;100.00;101005.00;5014071;28;20445;-48
2023/01/20 06:04:11;;;;;;;29.80;28.10;;;;;;;1.20;100.00;101005.25;5013206;28;20476;-46
2023/01/20 06:06:39;;;;;;;30.00;28.00;;;;;;;1.17;100.00;101015.19;5013873;28;20471;-44
2023/01/20 06:09:09;;;;;;;27.97;26.67;;;;;;;1.17;100.00;101018.66;5013804;28;20473;-47
2023/01/20 06:11:37;;;;;;;29.23;27.70;;;;;;;1.15;100.00;101031.09;5013941;28;20479;-50
2023/01/20 06:14:05;;;;;;;28.50;27.30;;;;;;;1.08;100.00;101029.94;5013145;28;20465;-46
2023/01/20 06:16:32;;;;;;;27.90;26.60;;;;;;;1.06;100.00;101032.69;5013711;28;20994;-45
2023/01/20 06:19:00;;;;;;;28.93;27.53;;;;;;;1.04;100.00;101041.66;5013843;28;20437;-46
2023/01/20 06:21:28;;;;;;;30.00;28.30;;;;;;;1.02;100.00;101041.78;5013675;28;20437;-45
2023/01/20 06:23:55;;;;;;;30.63;28.93;;;;;;;1.01;100.00;101037.50;5013152;28;20471;-47
2023/01/20 06:26:24;;;;;;;29.40;27.90;;;;;;;1.01;100.00;101042.75;5013812;28;20445;-45
2023/01/20 06:28:52;;;;;;;29.00;27.73;;;;;;;0.98;100.00;101050.06;5013673;28;20556;-45
2023/01/20 06:31:19;;;;;;;30.30;28.60;;;;;;;1.01;100.00;101052.44;5013562;28;20443;-46
2023/01/20 06:33:47;;;;;;;28.70;27.50;;;;;;;1.01;100.00;101052.44;5013030;28;20465;-44
2023/01/20 06:36:16;;;;;;;30.13;28.33;;;;;;;1.03;100.00;101061.00;5012895;28;20911;-45
2023/01/20 06:38:49;;;;;;;30.67;29.07;;;;;;;1.01;100.00;101053.25;5013306;28;20445;-44
2023/01/20 06:41:17;;;;;;;31.50;29.87;;;;;;;1.00;100.00;101069.13;5013361;28;20957;-44
2023/01/20 06:43:48;;;;;;;31.87;30.10;;;;;;;1.00;100.00;101071.75;5012879;28;20835;-45
2023/01/20 06:46:17;;;;;;;30.50;28.90;;;;;;;0.99;100.00;101067.47;5013356;28;20811;-44
2023/01/20 06:48:45;;;;;;;30.60;29.00;;;;;;;1.02;100.00;101077.72;5013199;28;20440;-44
2023/01/20 06:51:15;;;;;;;31.90;29.80;;;;;;;1.00;100.00;101069.97;5013473;28;20461;-44
2023/01/20 06:53:44;;;;;;;32.93;31.10;;;;;;;1.00;100.00;101082.25;5012222;28;20465;-45
2023/01/20 06:56:13;;;;;;;34.17;32.00;;;;;;;0.97;100.00;101083.34;5012752;28;20477;-47
2023/01/20 06:58:42;;;;;;;33.53;31.60;;;;;;;1.00;100.00;101090.16;5012984;28;20436;-45
2023/01/20 07:01:13;;;;;;;34.50;32.47;;;;;;;1.01;100.00;101095.28;5012818;28;20429;-47
2023/01/20 07:03:42;;;;;;;35.67;33.33;;;;;;;1.00;100.00;101105.91;5012520;28;20491;-44
2023/01/20 07:06:15;;;;;;;37.80;35.47;;;;;;;1.02;100.00;101114.47;5012800;28;20829;-46
2023/01/20 07:08:43;;;;;;;36.57;34.43;;;;;;;1.03;100.00;101111.72;5013225;28;20425;-44
2023/01/20 07:11:11;;;;;;;37.47;35.00;;;;;;;1.07;100.00;101115.78;5012696;28;20452;-46
2023/01/20 07:13:39;;;;;;;41.03;38.23;;;;;;;1.03;100.00;101124.88;5012039;28;21197;-45
2023/01/20 07:16:07;;;;;;;39.00;36.23;;;;;;;1.05;100.00;101127.34;5012461;28;20472;-45
2023/01/20 07:18:40;;;;;;;39.97;37.30;;;;;;;1.09;100.00;101136.66;5012975;28;20445;-48
2023/01/20 07:21:10;;;;;;;38.67;36.17;;;;;;;1.11;100.00;101142.59;5012683;28;20429;-45
2023/01/20 07:23:37;;;;;;;40.37;37.60;;;;;;;1.03;100.00;101140.63;5012156;28;20531;-44
2023/01/20 07:26:07;;;;;;;39.57;36.97;;;;;;;1.03;100.00;101143.25;5012179;28;20826;-51
2023/01/20 07:28:36;;;;;;;41.00;38.03;;;;;;;1.04;100.00;101149.34;5012805;28;20425;-45
2023/01/20 07:31:04;;;;;;;40.60;37.90;;;;;;;1.04;100.00;101154.59;5012696;28;20533;-45
2023/01/20 07:33:32;;;;;;;40.80;38.10;;;;;;;1.04;100.00;101159.84;5011965;28;20453;-44
2023/01/20 07:36:01;;;;;;;41.07;38.40;;;;;;;1.07;100.00;101165.69;5012089;28;20468;-45
2023/01/20 07:38:30;;;;;;;44.40;40.80;;;;;;;1.05;100.00;101179.88;5012214;28;20462;-44
2023/01/20 07:40:58;;;;;;;44.73;41.43;;;;;;;1.02;100.00;101188.00;5012183;28;20421;-45
2023/01/20 07:43:26;;;;;;;43.07;39.97;;;;;;;1.05;100.00;101195.63;5012004;28;20464;-49
2023/01/20 07:45:55;;;;;;;41.70;38.70;;;;;;;1.05;100.00;101200.88;5012149;28;20433;-44
2023/01/20 07:48:23;;;;;;;42.47;39.33;;;;;;;1.04;100.00;101207.13;5012254;28;20520;-48
2023/01/20 07:50:56;;;;;;;42.60;39.40;;;;;;;1.10;100.00;101214.50;5012196;28;21029;-45
2023/01/20 07:53:25;;;;;;;42.00;38.87;;;;;;;1.16;100.00;101229.78;5011886;28;20464;-49
2023/01/20 07:55:53;;;;;;;41.13;38.27;;;;;;;1.20;100.00;101227.69;5011907;28;20807;-49
2023/01/20 07:58:20;;;;;;;41.50;38.50;;;;;;;1.17;100.00;101226.16;5012197;28;20798;-45
2023/01/20 08:00:48;;;;;;;42.00;38.77;;;;;;;1.20;100.00;101241.69;5012054;28;20443;-44
2023/01/20 08:03:16;;;;;;;40.77;38.13;;;;;;;1.21;100.00;101240.72;5011536;28;20556;-45
2023/01/20 08:05:43;;;;;;;41.90;39.10;;;;;;;1.22;100.00;101236.31;5011546;28;20429;-45
2023/01/20 08:08:11;;;;;;;42.20;39.40;;;;;;;1.18;100.00;101248.00;5012084;28;20515;-47
2023/01/20 08:10:40;;;;;;;41.97;39.17;;;;;;;1.17;100.00;101252.44;5011905;28;20962;-45
2023/01/20 08:13:08;;;;;;;40.30;37.63;;;;;;;1.19;100.00;101255.78;5011566;28;20530;-44
2023/01/20 08:15:35;;;;;;;39.63;37.23;;;;;;;1.18;100.00;101269.88;5011585;28;20437;-45
2023/01/20 08:18:03;;;;;;;40.67;37.90;;;;;;;1.19;100.00;101265.47;5011654;28;21043;-45
2023/01/20 08:20:31;;;;;;;39.83;36.83;;;;;;;1.19;100.00;101273.34;5012067;28;20429;-44
2023/01/20 08:22:58;;;;;;;39.30;36.70;;;;;;;1.20;100.00;101278.44;5011398;28;20456;-44
2023/01/20 08:25:26;;;;;;;39.73;37.13;;;;;;;1.20;100.00;101288.13;5011663;28;20437;-45
2023/01/20 08:27:55;;;;;;;40.37;37.77;;;;;;;1.20;100.00;101290.75;5011860;28;20449;-50
2023/01/20 08:30:22;;;;;;;37.60;35.30;;;;;;;1.21;100.00;101303.78;5011780;28;20435;-45
2023/01/20 08:32:50;;;;;;;38.97;36.40;;;;;;;1.23;100.00;101304.47;5011227;28;20452;-47
2023/01/20 08:35:18;;;;;;;38.20;35.60;;;;;;;1.27;100.00;101312.94;5011727;28;20425;-51
2023/01/20 08:37:46;;;;;;;38.03;35.60;;;;;;;1.31;100.00;101314.38;5011668;28;20484;-48
2023/01/20 08:40:14;;;;;;;39.00;36.00;;;;;;;1.33;100.00;101323.81;5011584;28;20425;-44
2023/01/20 08:42:41;;;;;;;40.10;37.07;;;;;;;1.37;100.00;101319.16;4991652;28;20434;-50
2023/01/20 08:45:11;;;;;;;39.50;36.60;;;;;;;1.35;100.00;101327.16;4991769;28;20429;-45
2023/01/20 08:47:44;;;;;;;40.07;36.67;;;;;;;1.38;100.00;101331.31;4992305;28;20446;-46
2023/01/20 08:50:14;;;;;;;40.50;37.50;;;;;;;1.41;100.00;101337.16;4992309;28;20801;-44
2023/01/20 08:52:42;;;;;;;42.97;39.63;;;;;;;1.43;100.00;101345.78;4991812;28;20441;-49
2023/01/20 08:55:10;;;;;;;45.27;41.30;;;;;;;1.41;100.00;101352.09;4991912;28;20431;-49
2023/01/20 08:57:38;;;;;;;43.17;39.70;;;;;;;1.44;100.00;101357.09;4991830;28;21202;-45
2023/01/20 09:00:09;;;;;;;42.43;39.10;;;;;;;1.49;100.00;101362.84;4991979;28;20429;-45
2023/01/20 09:02:39;;;;;;;41.83;38.70;;;;;;;1.51;100.00;101363.53;4991851;28;20433;-49
2023/01/20 09:05:08;;;;;;;43.67;40.40;;;;;;;1.52;100.00;101371.28;4991635;28;20433;-49
2023/01/20 09:07:36;;;;;;;44.70;41.20;;;;;;;1.58;100.00;101370.81;4991808;28;20457;-47
2023/01/20 09:10:05;;;;;;;44.97;41.13;;;;;;;1.63;100.00;101383.59;4991731;28;20496;-46
2023/01/20 09:12:32;;;;;;;44.57;41.33;;;;;;;1.70;100.00;101383.94;4991275;28;20463;-47
2023/01/20 09:15:00;;;;;;;44.67;41.20;;;;;;;1.73;100.00;101376.63;4991808;28;20465;-46
2023/01/20 09:17:31;;;;;;;44.83;41.50;;;;;;;1.78;100.00;101384.97;4992698;28;20477;-47
2023/01/20 09:20:00;;;;;;;44.40;40.87;;;;;;;1.85;100.00;101388.75;4995293;28;20963;-51
2023/01/20 09:22:28;;;;;;;45.93;42.40;;;;;;;1.89;100.00;101398.09;4994788;28;20440;-45
2023/01/20 09:24:55;;;;;;;44.40;40.60;;;;;;;1.94;100.00;101398.53;4994863;28;20433;-45
2023/01/20 09:27:24;;;;;;;45.33;41.83;;;;;;;1.97;100.00;101411.44;4995104;28;20450;-46
2023/01/20 09:29:52;;;;;;;44.57;41.20;;;;;;;2.00;100.00;101411.19;4995123;28;20449;-46
2023/01/20 09:32:19;;;;;;;43.93;40.40;;;;;;;2.04;100.00;101411.78;4995096;28;20430;-50
2023/01/20 09:34:47;;;;;;;44.00;40.50;;;;;;;2.09;100.00;101415.69;4994426;28;20469;-46
2023/01/20 09:45:55;;;;;;;42.47;39.27;;;;;;;2.14;100.00;101433.75;5014567;28;20829;-45
2023/01/20 09:54:16;;;;;;;43.03;39.60;;;;;;;2.07;100.00;101443.94;4999157;28;21126;-45
2023/01/20 09:56:47;;;;;;;42.90;39.70;;;;;;;2.10;100.00;101461.28;4994507;28;20479;-47
2023/01/20 09:59:20;;;;;;;42.63;39.40;;;;;;;2.10;100.00;101456.00;4994789;28;20438;-49
2023/01/20 10:01:51;;;;;;;44.40;40.90;;;;;;;2.09;100.00;101462.25;4994844;28;20434;-47
2023/01/20 10:04:24;;;;;;;45.50;41.83;;;;;;;2.04;100.00;101462.59;4993893;28;20832;-49
2023/01/20 10:06:55;;;;;;;45.73;41.83;;;;;;;2.03;100.00;101470.63;4994486;28;20522;-46
2023/01/20 10:09:28;;;;;;;44.43;41.13;;;;;;;2.03;100.00;101465.38;4994523;28;20981;-49
2023/01/20 10:12:07;;;;;;;46.40;42.50;;;;;;;2.05;100.00;101466.06;4994574;28;20425;-46
2023/01/20 10:14:40;;;;;;;47.67;43.50;;;;;;;2.03;100.00;101473.25;4993684;28;20886;-47
2023/01/20 10:17:14;;;;;;;47.10;43.37;;;;;;;1.97;100.00;101473.75;4994638;28;20481;-46
2023/01/20 10:19:49;;;;;;;47.30;43.50;;;;;;;1.94;100.00;101474.81;4994533;28;20438;-47
2023/01/20 10:22:21;;;;;;;49.27;44.97;;;;;;;1.97;100.00;101466.69;4994355;28;20437;-45
2023/01/20 10:24:57;;;;;;;49.70;45.77;;;;;;;1.92;100.00;101481.16;4993693;28;20449;-46
2023/01/20 10:27:28;;;;;;;49.07;44.93;;;;;;;1.91;100.00;101477.69;4993987;28;20450;-45
2023/01/20 10:30:03;;;;;;;48.37;44.30;;;;;;;1.92;100.00;101487.25;4994282;28;20520;-50
2023/01/20 10:32:35;;;;;;;54.07;48.53;;;;;;;1.88;100.00;101488.47;4993699;28;20835;-49
2023/01/20 10:35:10;;;;;;;48.57;44.33;;;;;;;1.83;100.00;101490.63;4993728;28;20952;-45
2023/01/20 10:37:38;;;;;;;47.23;43.30;;;;;;;1.82;100.00;101490.75;4993612;28;20847;-46
2023/01/20 10:40:17;;;;;;;50.80;46.50;;;;;;;1.77;100.00;101496.38;4993992;28;20435;-49
2023/01/20 10:42:48;;;;;;;51.07;46.47;;;;;;;1.81;100.00;101500.44;4993376;28;20537;-49
2023/01/20 10:45:21;;;;;;;51.93;47.67;;;;;;;1.83;100.00;101508.19;4993671;28;20797;-44
2023/01/20 10:47:58;;;;;;;52.70;47.63;;;;;;;1.81;100.00;101502.22;4993727;28;20454;-46
2023/01/20 10:50:34;;;;;;;49.20;45.10;;;;;;;1.79;100.00;101498.91;4993605;28;20459;-46
2023/01/20 10:53:13;;;;;;;51.30;46.50;;;;;;;1.83;100.00;101516.94;4993351;28;20457;-49
2023/01/20 10:55:53;;;;;;;54.33;49.33;;;;;;;1.88;100.00;101516.56;4993525;28;20434;-47
2023/01/20 10:58:27;;;;;;;50.00;45.60;;;;;;;1.89;100.00;101516.44;4993786;28;20469;-45
2023/01/20 11:00:56;;;;;;;48.37;44.23;;;;;;;1.94;100.00;101522.16;4993415;28;20434;-45
2023/01/20 11:03:25;;;;;;;49.80;45.30;;;;;;;1.94;100.00;101516.91;4992992;28;20468;-47
2023/01/20 11:05:53;;;;;;;51.37;47.00;;;;;;;1.94;100.00;101519.53;4993257;28;20520;-45
2023/01/20 11:08:23;;;;;;;51.70;46.90;;;;;;;1.97;100.00;101521.91;4993231;28;20437;-45
2023/01/20 11:10:54;;;;;;;52.73;47.70;;;;;;;1.98;100.00;101517.50;4993036;28;20442;-45
2023/01/20 11:13:22;;;;;;;51.63;46.63;;;;;;;2.07;100.00;101520.22;4992900;28;20462;-45
2023/01/20 11:15:55;;;;;;;48.00;43.60;;;;;;;2.13;100.00;101526.78;4993157;28;20430;-45
2023/01/20 11:18:29;;;;;;;47.70;43.67;;;;;;;2.12;100.00;101530.41;4993200;28;20477;-44
2023/01/20 11:21:00;;;;;;;47.90;43.43;;;;;;;2.14;100.00;101529.31;4993100;28;20437;-46
2023/01/20 11:23:36;;;;;;;48.30;44.10;;;;;;;2.20;100.00;101530.63;4992568;28;20469;-45
2023/01/20 11:26:09;;;;;;;48.63;44.47;;;;;;;2.23;100.00;101533.00;4992950;28;20436;-44
2023/01/20 11:28:50;;;;;;;47.20;42.90;;;;;;;2.31;100.00;101535.00;4993239;28;20476;-46
2023/01/20 11:31:18;;;;;;;46.70;42.60;;;;;;;2.37;100.00;101540.59;4993096;28;20426;-46
2023/01/20 11:33:58;;;;;;;45.60;42.10;;;;;;;2.40;100.00;101547.41;4992563;28;20880;-44
2023/01/20 11:36:26;;;;;;;48.17;44.20;;;;;;;2.44;100.00;101549.69;4993143;28;20450;-45
2023/01/20 11:38:55;;;;;;;48.30;44.10;;;;;;;2.45;100.00;101553.97;4992537;28;20470;-46